sensor_id;sensor_type;location;lat;lon;timestamp;temperature;humidity
73875;HTU21D;62209;47.568;7.558;2024-03-23T00:58:45;13.63;86.51
73875;HTU21D;62209;47.568;7.558;2024-03-23T01:13:51;14.60;85.06
73875;HTU21D;62209;47.568;7.558;2024-03-23T01:28:57;14.35;86.13
73875;HTU21D;62209;47.568;7.558;2024-03-23T01:44:01;13.75;89.49
73875;HTU21D;62209;47.568;7.558;2024-03-23T01:59:10;14.81;87.72
73875;HTU21D;62209;47.568;7.558;2024-03-23T02:14:14;15.15;86.25
73875;HTU21D;62209;47.568;7.558;2024-03-23T02:29:19;15.07;86.86
73875;HTU21D;62209;47.568;7.558;2024-03-23T02:44:23;14.38;88.22
73875;HTU21D;62209;47.568;7.558;2024-03-23T02:59:28;14.22;88.77
73875;HTU21D;62209;47.568;7.558;2024-03-23T03:14:32;13.81;89.88
73875;HTU21D;62209;47.568;7.558;2024-03-23T03:29:36;12.99;91.72
73875;HTU21D;62209;47.568;7.558;2024-03-23T03:44:41;12.49;93.75
73875;HTU21D;62209;47.568;7.558;2024-03-23T03:59:45;12.50;94.89
73875;HTU21D;62209;47.568;7.558;2024-03-23T04:14:49;12.05;102.22
73875;HTU21D;62209;47.568;7.558;2024-03-23T04:29:54;11.99;105.16
73875;HTU21D;62209;47.568;7.558;2024-03-23T04:44:58;12.03;103.87
73875;HTU21D;62209;47.568;7.558;2024-03-23T05:00:03;11.81;105.80
73875;HTU21D;62209;47.568;7.558;2024-03-23T05:15:18;11.41;106.49
73875;HTU21D;62209;47.568;7.558;2024-03-23T05:30:23;11.33;106.14
73875;HTU21D;62209;47.568;7.558;2024-03-23T05:45:27;11.39;101.63
73875;HTU21D;62209;47.568;7.558;2024-03-23T06:00:32;10.83;101.06
73875;HTU21D;62209;47.568;7.558;2024-03-23T06:15:36;10.64;103.82
73875;HTU21D;62209;47.568;7.558;2024-03-23T06:30:40;10.59;103.76
73875;HTU21D;62209;47.568;7.558;2024-03-23T06:45:45;10.22;103.65
73875;HTU21D;62209;47.568;7.558;2024-03-23T07:00:56;9.15;104.11
73875;HTU21D;62209;47.568;7.558;2024-03-23T07:16:01;8.68;103.18
73875;HTU21D;62209;47.568;7.558;2024-03-23T07:31:06;8.42;100.75
73875;HTU21D;62209;47.568;7.558;2024-03-23T07:46:12;8.19;102.76
73875;HTU21D;62209;47.568;7.558;2024-03-23T08:01:17;8.18;100.02
73875;HTU21D;62209;47.568;7.558;2024-03-23T08:16:21;8.55;98.10
73875;HTU21D;62209;47.568;7.558;2024-03-23T08:31:26;10.59;89.81
73875;HTU21D;62209;47.568;7.558;2024-03-23T08:46:30;10.62;89.05
73875;HTU21D;62209;47.568;7.558;2024-03-23T09:01:35;11.83;85.11
73875;HTU21D;62209;47.568;7.558;2024-03-23T09:16:40;11.59;82.93
73875;HTU21D;62209;47.568;7.558;2024-03-23T09:31:44;12.43;83.27
73875;HTU21D;62209;47.568;7.558;2024-03-23T09:46:49;13.07;80.17
73875;HTU21D;62209;47.568;7.558;2024-03-23T10:01:54;13.00;77.65
73875;HTU21D;62209;47.568;7.558;2024-03-23T10:17:03;12.65;73.92
73875;HTU21D;62209;47.568;7.558;2024-03-23T10:32:17;12.02;76.21
73875;HTU21D;62209;47.568;7.558;2024-03-23T10:47:22;12.30;77.96
73875;HTU21D;62209;47.568;7.558;2024-03-23T11:02:26;7.84;95.97
73875;HTU21D;62209;47.568;7.558;2024-03-23T11:17:32;7.02;100.15
73875;HTU21D;62209;47.568;7.558;2024-03-23T11:32:36;9.32;95.57
73875;HTU21D;62209;47.568;7.558;2024-03-23T11:47:40;12.51;88.03
73875;HTU21D;62209;47.568;7.558;2024-03-23T12:02:45;12.29;86.29
73875;HTU21D;62209;47.568;7.558;2024-03-23T12:17:49;11.32;84.42
73875;HTU21D;62209;47.568;7.558;2024-03-23T12:32:54;12.77;79.77
73875;HTU21D;62209;47.568;7.558;2024-03-23T12:47:58;11.45;75.54
73875;HTU21D;62209;47.568;7.558;2024-03-23T13:03:03;12.53;71.84
73875;HTU21D;62209;47.568;7.558;2024-03-23T13:18:08;12.76;67.55
73875;HTU21D;62209;47.568;7.558;2024-03-23T13:33:12;13.65;66.72
73875;HTU21D;62209;47.568;7.558;2024-03-23T13:48:17;13.15;63.15
73875;HTU21D;62209;47.568;7.558;2024-03-23T14:03:22;13.54;63.40
73875;HTU21D;62209;47.568;7.558;2024-03-23T14:18:26;13.37;64.34
73875;HTU21D;62209;47.568;7.558;2024-03-23T14:33:31;13.25;61.56
73875;HTU21D;62209;47.568;7.558;2024-03-23T14:48:36;11.71;67.39
73875;HTU21D;62209;47.568;7.558;2024-03-23T15:03:41;12.65;78.34
73875;HTU21D;62209;47.568;7.558;2024-03-23T15:18:46;12.52;74.64
73875;HTU21D;62209;47.568;7.558;2024-03-23T15:33:51;10.68;73.42
73875;HTU21D;62209;47.568;7.558;2024-03-23T15:48:55;10.83;77.53
73875;HTU21D;62209;47.568;7.558;2024-03-23T16:03:59;10.67;76.60
73875;HTU21D;62209;47.568;7.558;2024-03-23T16:19:04;9.97;78.82
73875;HTU21D;62209;47.568;7.558;2024-03-23T16:34:08;7.89;92.18
73875;HTU21D;62209;47.568;7.558;2024-03-23T16:49:13;7.13;93.84
73875;HTU21D;62209;47.568;7.558;2024-03-23T17:04:17;6.97;95.37
73875;HTU21D;62209;47.568;7.558;2024-03-23T17:19:24;7.24;93.36
73875;HTU21D;62209;47.568;7.558;2024-03-23T17:34:29;7.40;91.95
73875;HTU21D;62209;47.568;7.558;2024-03-23T17:49:34;7.26;91.27
73875;HTU21D;62209;47.568;7.558;2024-03-23T18:04:38;7.10;90.70
73875;HTU21D;62209;47.568;7.558;2024-03-23T18:19:43;6.84;90.20
73875;HTU21D;62209;47.568;7.558;2024-03-23T18:34:47;6.79;89.41
73875;HTU21D;62209;47.568;7.558;2024-03-23T18:49:52;6.99;88.47
73875;HTU21D;62209;47.568;7.558;2024-03-23T19:04:56;7.15;89.42
73875;HTU21D;62209;47.568;7.558;2024-03-23T19:20:01;5.25;100.79
73875;HTU21D;62209;47.568;7.558;2024-03-23T19:35:06;5.02;103.66
73875;HTU21D;62209;47.568;7.558;2024-03-23T19:50:11;5.12;103.47
73875;HTU21D;62209;47.568;7.558;2024-03-23T20:05:15;5.32;102.96
73875;HTU21D;62209;47.568;7.558;2024-03-23T20:20:20;5.61;101.68
73875;HTU21D;62209;47.568;7.558;2024-03-23T20:35:24;5.80;101.41
73875;HTU21D;62209;47.568;7.558;2024-03-23T20:50:29;5.65;99.26
73875;HTU21D;62209;47.568;7.558;2024-03-23T21:05:33;5.60;97.59
73875;HTU21D;62209;47.568;7.558;2024-03-23T21:20:38;5.71;99.53
73875;HTU21D;62209;47.568;7.558;2024-03-23T21:35:42;5.70;99.35
73875;HTU21D;62209;47.568;7.558;2024-03-23T21:50:46;5.70;99.97
73875;HTU21D;62209;47.568;7.558;2024-03-23T22:05:54;5.63;98.66
73875;HTU21D;62209;47.568;7.558;2024-03-23T22:20:59;5.70;98.68
73875;HTU21D;62209;47.568;7.558;2024-03-23T22:36:05;5.90;97.29
73875;HTU21D;62209;47.568;7.558;2024-03-23T22:51:11;6.13;97.08
73875;HTU21D;62209;47.568;7.558;2024-03-23T23:06:16;6.46;93.49
73875;HTU21D;62209;47.568;7.558;2024-03-23T23:21:20;6.27;95.55
73875;HTU21D;62209;47.568;7.558;2024-03-23T23:36:25;5.97;100.12
73875;HTU21D;62209;47.568;7.558;2024-03-23T23:51:29;5.67;101.82
